Campanya Meteocatpedra
Centenari de l'SMC: 100 anys mirant el cel

Dades de l'estació automàtica Santuari de Queralt

?
?

Resum diari

22:00 TU
Dades diàries de l'estació meteorològica
Temperatura mitjana 12.0 °C
Temperatura màxima 16.7 °C 12:04 TU
Temperatura mínima 8.5 °C 16:20 TU
Humitat relativa mitjana 84%
Precipitació acumulada 6.5 mm
Ratxa màxima del vent (10 m) 56.5 km/h - 300º 16:11 TU
Irradiació solar global 7.1 MJ/m2

El tram horari està expressat en Temps Universal (TU). Cal sumar una hora en horari d'hivern i dues en horari d'estiu per passar a l'hora oficial.

Santuari de Queralt

Metadades estació meteorològica
Municipi Berga
Comarca Berguedà
Altitud 1167 m
Data alta 23.01.2002
Estat actual Operativa
Dades de període
Període
TU
TM
°C
TX
°C
TN
°C
HRM
%
PPT
mm
VVM (10 m)
km/h
DVM (10 m)
graus
VVX (10 m)
km/h
RS
W/m2
00:00 - 00:30 12.3 12.6 12.1 77 0.0 6.8 203 11.5 0
00:30 - 01:00 12.0 12.3 11.8 83 0.0 2.9 199 7.2 0
01:00 - 01:30 11.7 11.8 11.6 87 0.0 1.8 177 4.7 0
01:30 - 02:00 11.5 11.6 11.3 88 0.0 1.8 197 5.8 0
02:00 - 02:30 11.3 11.6 11.1 86 0.0 2.2 82 5.8 0
02:30 - 03:00 11.1 11.2 11.0 92 0.0 2.9 159 9.0 0
03:00 - 03:30 10.8 11.0 10.7 93 0.0 6.1 216 9.0 0
03:30 - 04:00 10.5 10.8 10.3 92 0.0 4.3 323 10.1 0
04:00 - 04:30 10.4 10.7 10.2 94 0.0 6.1 189 9.7 0
04:30 - 05:00 10.2 10.5 9.9 94 0.0 4.7 322 11.2 0
05:00 - 05:30 10.5 10.6 10.3 93 0.0 2.9 142 6.1 0
05:30 - 06:00 10.0 10.3 9.7 96 0.0 4.0 37 7.9 7
06:00 - 06:30 9.9 10.0 9.7 96 0.0 5.0 15 10.1 38
06:30 - 07:00 10.4 10.7 10.0 97 0.0 4.7 5 10.4 53
07:00 - 07:30 11.1 11.4 10.8 95 0.0 4.7 30 10.1 76
07:30 - 08:00 11.8 12.4 11.5 92 0.0 1.4 30 7.2 168
08:00 - 08:30 13.7 14.6 12.7 85 0.0 3.6 116 9.0 415
08:30 - 09:00 13.0 14.5 12.1 86 0.0 3.2 128 9.0 243
09:00 - 09:30 13.2 13.6 12.6 86 0.0 1.4 103 9.7 214
09:30 - 10:00 13.3 13.6 13.1 85 0.0 6.1 148 11.2 223
10:00 - 10:30 13.4 13.7 12.7 87 0.0 6.8 149 14.0 180
10:30 - 11:00 13.0 13.4 12.7 88 0.0 5.8 154 11.9 129
11:00 - 11:30 13.7 15.0 13.2 85 0.0 4.3 155 9.0 346
11:30 - 12:00 15.6 16.6 14.7 78 0.0 10.1 155 22.0 565
12:00 - 12:30 15.7 16.7 14.9 77 0.0 12.6 162 20.5 413
12:30 - 13:00 14.7 15.5 14.3 79 0.0 9.0 166 18.0 186
13:00 - 13:30 14.4 15.2 14.0 78 0.0 7.6 159 14.4 108
13:30 - 14:00 14.6 14.9 14.1 78 0.0 11.5 167 18.0 175
14:00 - 14:30 14.8 15.1 14.5 76 0.0 10.4 168 18.4 227
14:30 - 15:00 14.1 14.7 13.5 77 0.2 7.6 207 19.1 106
15:00 - 15:30 13.3 13.7 12.8 78 0.1 6.5 255 20.2 55
15:30 - 16:00 12.6 13.3 11.3 71 0.7 18.4 271 50.0 13
16:00 - 16:30 9.6 11.3 8.5 88 3.6 34.6 314 56.5 10
16:30 - 17:00 9.2 9.5 8.7 92 1.4 27.0 312 38.5 9
17:00 - 17:30 10.2 11.5 9.3 83 0.5 27.7 300 38.5 7
17:30 - 18:00 12.5 13.1 11.7 68 0.0 9.0 276 23.8 3
18:00 - 18:30 11.9 12.4 11.1 69 0.0 4.3 61 11.2 0
18:30 - 19:00 10.9 11.9 10.3 80 0.0 7.6 126 12.6 0
19:00 - 19:30 10.5 11.0 10.2 84 0.0 4.0 95 9.0 0
19:30 - 20:00 10.0 10.3 9.7 88 0.0 4.3 46 8.3 0
20:00 - 20:30 9.6 9.9 9.4 89 0.0 10.1 328 19.4 0
20:30 - 21:00 10.3 11.1 9.6 75 0.0 15.1 314 25.6 0
21:00 - 21:30 10.8 11.2 10.5 67 0.0 13.0 322 23.4 0
21:30 - 22:00 12.0 12.4 10.8 61 0.0 5.0 290 19.1 0
22:00 - 22:30 11.9 12.1 11.4 67 0.0 2.9 257 9.0 0

Les dades en taronja només han passat un control de qualitat automàtic. Resta pendent la seva validació definitiva.